sensor_id;sensor_type;location;lat;lon;timestamp;P1;durP1;ratioP1;P2;durP2;ratioP2
45734;SDS011;31446;49.632;8.328;2023-05-14T00:11:06;8.88;;;4.72;;
45734;SDS011;31446;49.632;8.328;2023-05-14T00:26:14;5.45;;;4.03;;
45734;SDS011;31446;49.632;8.328;2023-05-14T00:41:22;7.43;;;5.20;;
45734;SDS011;31446;49.632;8.328;2023-05-14T00:56:29;6.80;;;4.78;;
45734;SDS011;31446;49.632;8.328;2023-05-14T01:11:38;7.55;;;5.32;;
45734;SDS011;31446;49.632;8.328;2023-05-14T01:26:54;9.45;;;6.15;;
45734;SDS011;31446;49.632;8.328;2023-05-14T01:42:05;10.95;;;6.72;;
45734;SDS011;31446;49.632;8.328;2023-05-14T01:57:13;8.88;;;6.90;;
45734;SDS011;31446;49.632;8.328;2023-05-14T02:12:19;7.75;;;6.28;;
45734;SDS011;31446;49.632;8.328;2023-05-14T02:27:26;10.25;;;6.32;;
45734;SDS011;31446;49.632;8.328;2023-05-14T02:42:32;14.75;;;7.88;;
45734;SDS011;31446;49.632;8.328;2023-05-14T02:57:39;13.95;;;7.55;;
45734;SDS011;31446;49.632;8.328;2023-05-14T03:12:46;11.00;;;8.50;;
45734;SDS011;31446;49.632;8.328;2023-05-14T03:27:52;11.00;;;7.82;;
45734;SDS011;31446;49.632;8.328;2023-05-14T03:42:58;9.73;;;7.25;;
45734;SDS011;31446;49.632;8.328;2023-05-14T03:58:05;10.48;;;7.85;;
45734;SDS011;31446;49.632;8.328;2023-05-14T04:13:15;11.43;;;7.22;;
45734;SDS011;31446;49.632;8.328;2023-05-14T04:28:22;11.20;;;7.82;;
45734;SDS011;31446;49.632;8.328;2023-05-14T04:43:28;10.95;;;7.88;;
45734;SDS011;31446;49.632;8.328;2023-05-14T04:58:34;9.50;;;7.72;;
45734;SDS011;31446;49.632;8.328;2023-05-14T05:13:41;8.63;;;6.78;;
45734;SDS011;31446;49.632;8.328;2023-05-14T05:28:47;7.38;;;5.88;;
45734;SDS011;31446;49.632;8.328;2023-05-14T05:43:54;5.97;;;5.38;;
45734;SDS011;31446;49.632;8.328;2023-05-14T05:59:01;8.98;;;6.22;;
45734;SDS011;31446;49.632;8.328;2023-05-14T06:14:07;7.00;;;5.70;;
45734;SDS011;31446;49.632;8.328;2023-05-14T06:29:14;8.00;;;5.90;;
45734;SDS011;31446;49.632;8.328;2023-05-14T06:44:20;7.60;;;5.85;;
45734;SDS011;31446;49.632;8.328;2023-05-14T06:59:27;7.75;;;5.18;;
45734;SDS011;31446;49.632;8.328;2023-05-14T07:14:34;8.73;;;5.00;;
45734;SDS011;31446;49.632;8.328;2023-05-14T07:29:43;6.85;;;4.20;;
45734;SDS011;31446;49.632;8.328;2023-05-14T07:44:50;6.93;;;4.15;;
45734;SDS011;31446;49.632;8.328;2023-05-14T07:59:58;4.18;;;3.70;;
45734;SDS011;31446;49.632;8.328;2023-05-14T08:15:06;13.05;;;4.15;;
45734;SDS011;31446;49.632;8.328;2023-05-14T08:30:14;4.60;;;3.80;;
45734;SDS011;31446;49.632;8.328;2023-05-14T08:45:26;5.90;;;3.55;;
45734;SDS011;31446;49.632;8.328;2023-05-14T09:00:35;4.27;;;3.83;;
45734;SDS011;31446;49.632;8.328;2023-05-14T09:15:42;7.18;;;3.58;;
45734;SDS011;31446;49.632;8.328;2023-05-14T09:30:48;4.55;;;3.95;;
45734;SDS011;31446;49.632;8.328;2023-05-14T09:45:55;6.57;;;3.80;;
45734;SDS011;31446;49.632;8.328;2023-05-14T10:01:01;3.28;;;2.67;;
45734;SDS011;31446;49.632;8.328;2023-05-14T10:16:15;3.03;;;2.67;;
45734;SDS011;31446;49.632;8.328;2023-05-14T10:31:24;3.83;;;3.10;;
45734;SDS011;31446;49.632;8.328;2023-05-14T10:46:51;7.95;;;4.03;;
45734;SDS011;31446;49.632;8.328;2023-05-14T11:01:58;3.67;;;2.90;;
45734;SDS011;31446;49.632;8.328;2023-05-14T11:17:04;8.13;;;4.55;;
45734;SDS011;31446;49.632;8.328;2023-05-14T11:32:10;4.72;;;3.35;;
45734;SDS011;31446;49.632;8.328;2023-05-14T11:47:18;6.97;;;5.43;;
45734;SDS011;31446;49.632;8.328;2023-05-14T12:02:25;3.50;;;2.35;;
45734;SDS011;31446;49.632;8.328;2023-05-14T12:17:32;2.60;;;2.40;;
45734;SDS011;31446;49.632;8.328;2023-05-14T12:32:38;2.33;;;2.17;;
45734;SDS011;31446;49.632;8.328;2023-05-14T12:47:45;2.80;;;2.17;;
45734;SDS011;31446;49.632;8.328;2023-05-14T13:02:51;3.78;;;2.55;;
45734;SDS011;31446;49.632;8.328;2023-05-14T13:17:57;6.00;;;2.58;;
45734;SDS011;31446;49.632;8.328;2023-05-14T13:33:06;3.78;;;2.15;;
45734;SDS011;31446;49.632;8.328;2023-05-14T13:48:12;5.10;;;2.00;;
45734;SDS011;31446;49.632;8.328;2023-05-14T14:03:18;1.70;;;1.60;;
45734;SDS011;31446;49.632;8.328;2023-05-14T14:18:25;3.60;;;1.95;;
45734;SDS011;31446;49.632;8.328;2023-05-14T14:33:31;2.13;;;1.70;;
45734;SDS011;31446;49.632;8.328;2023-05-14T14:48:37;1.70;;;1.60;;
45734;SDS011;31446;49.632;8.328;2023-05-14T15:03:43;2.17;;;1.40;;
45734;SDS011;31446;49.632;8.328;2023-05-14T15:18:50;1.42;;;1.33;;
45734;SDS011;31446;49.632;8.328;2023-05-14T15:33:56;2.50;;;1.40;;
45734;SDS011;31446;49.632;8.328;2023-05-14T15:49:02;2.55;;;1.90;;
45734;SDS011;31446;49.632;8.328;2023-05-14T16:04:08;1.20;;;1.10;;
45734;SDS011;31446;49.632;8.328;2023-05-14T16:19:14;3.00;;;1.83;;
45734;SDS011;31446;49.632;8.328;2023-05-14T16:34:20;1.55;;;1.45;;
45734;SDS011;31446;49.632;8.328;2023-05-14T16:49:27;1.67;;;1.40;;
45734;SDS011;31446;49.632;8.328;2023-05-14T17:04:33;1.58;;;1.48;;
45734;SDS011;31446;49.632;8.328;2023-05-14T17:19:40;1.73;;;1.40;;
45734;SDS011;31446;49.632;8.328;2023-05-14T17:34:47;3.38;;;1.50;;
45734;SDS011;31446;49.632;8.328;2023-05-14T17:49:53;1.95;;;1.60;;
45734;SDS011;31446;49.632;8.328;2023-05-14T18:04:59;1.40;;;1.30;;
45734;SDS011;31446;49.632;8.328;2023-05-14T18:20:06;8.88;;;5.28;;
45734;SDS011;31446;49.632;8.328;2023-05-14T18:35:13;3.40;;;1.55;;
45734;SDS011;31446;49.632;8.328;2023-05-14T18:50:19;1.33;;;1.27;;
45734;SDS011;31446;49.632;8.328;2023-05-14T19:05:25;2.45;;;1.25;;
45734;SDS011;31446;49.632;8.328;2023-05-14T19:20:32;1.08;;;1.08;;
45734;SDS011;31446;49.632;8.328;2023-05-14T19:35:38;1.10;;;1.00;;
45734;SDS011;31446;49.632;8.328;2023-05-14T19:50:44;1.92;;;1.20;;
45734;SDS011;31446;49.632;8.328;2023-05-14T20:05:51;2.08;;;1.30;;
45734;SDS011;31446;49.632;8.328;2023-05-14T20:20:57;1.40;;;1.30;;
45734;SDS011;31446;49.632;8.328;2023-05-14T20:36:03;2.55;;;1.30;;
45734;SDS011;31446;49.632;8.328;2023-05-14T20:51:10;3.00;;;0.93;;
45734;SDS011;31446;49.632;8.328;2023-05-14T21:06:16;2.35;;;1.80;;
45734;SDS011;31446;49.632;8.328;2023-05-14T21:21:22;1.48;;;1.30;;
45734;SDS011;31446;49.632;8.328;2023-05-14T21:36:29;2.95;;;1.65;;
45734;SDS011;31446;49.632;8.328;2023-05-14T23:10:07;3.00;;;2.35;;
45734;SDS011;31446;49.632;8.328;2023-05-14T23:25:16;2.50;;;2.30;;
45734;SDS011;31446;49.632;8.328;2023-05-14T23:40:23;2.58;;;2.35;;
45734;SDS011;31446;49.632;8.328;2023-05-14T23:55:29;3.67;;;2.28;;
